Aérodrome :







RETROUVEZ-NOUS SUR...

 
LOGIN :

S'inscrire | Disclaimer

   EN    FR    IT 

 









Légende :    VFR   VFR Marginal   IFR   IFR Intensif   IFR Très Intensif
Visi : 
Plafond : 
>= 8 km
>= 3000ft
5 à 8 km
1000 à 3000 ft
1500m à 5 km
500 à 1000 ft
800 à 1500m
200 à 500 ft
< 800m
< 200 ft
Symboles :   Orages  Brouillard  Fortes neiges  Fortes précipitations  Vent > 20 kt







- Altitude de l'aérodrome : 357 ft
- Code IATA : YSJ


CYSJ - Saint John

DERNIER METAR :
  • 170451Z 36008G19KT 15SM BKN014 BKN078 OVC140 13/12 A2993 RMK SC5AC2AC1 SLP137

METARs EXPIRÉS :
  • 170400Z 36016KT 15SM SCT081 BKN140 13/12 A2990 RMK AC4AC3 SLP128
  • 170300Z 34018KT 15SM SCT070 BKN084 14/12 A2989 RMK AC4AC3 SLP126
  • 170200Z 33016KT 15SM FEW048 BKN077 BKN090 14/11 A2990 RMK SC2AC3AC2 SLP129 DENSITY ALT 400FT

TAF AMD TAF CYSJ
Valide du 17 à 02h jusqu'au 17 à 12h UTC


170207Z 1702/1712 33012KT P6SM BKN040
TEMPO 1702/1712 P6SM -SHRA BKN020
BECMG 1707/1709 02010KT RMK NXT FCST BY 170600Z
Pas de NOTAMs connus pour ce terrain.



MET'MAP, la Météo Aéronautique d'un coup d'oeil ! - Copyright ORBIFLY Décembre 2007 - Disclaimer

ORBIFLY MET'MAP TEAM :

Programmation & Développement : Alexandra Zaïnal
Conception & Développement : Baudouin d'Aumeries
Co-Programmation & Développement : Marc-Olivier Méhu
Soutien technique & logistique : Manuel Goepfert

Contact : metmap@orbifly.com




SOURCES & CREDITS :

   NOAA